sensor_id;sensor_type;location;lat;lon;timestamp;temperature;humidity
10472;DHT22;5283;48.876;8.962;2023-02-28T00:00:28;-2.30;99.90
10472;DHT22;5283;48.876;8.962;2023-02-28T00:02:55;-2.30;99.90
10472;DHT22;5283;48.876;8.962;2023-02-28T00:05:24;-2.40;99.90
10472;DHT22;5283;48.876;8.962;2023-02-28T00:07:51;-2.50;99.90
10472;DHT22;5283;48.876;8.962;2023-02-28T00:10:27;-2.70;99.90
10472;DHT22;5283;48.876;8.962;2023-02-28T00:12:55;-3.00;99.90
10472;DHT22;5283;48.876;8.962;2023-02-28T00:15:23;-3.30;99.90
10472;DHT22;5283;48.876;8.962;2023-02-28T00:17:51;-3.40;99.90
10472;DHT22;5283;48.876;8.962;2023-02-28T00:20:18;-3.30;99.90
10472;DHT22;5283;48.876;8.962;2023-02-28T00:22:47;-3.20;99.90
10472;DHT22;5283;48.876;8.962;2023-02-28T00:25:17;-3.10;99.90
10472;DHT22;5283;48.876;8.962;2023-02-28T00:27:44;-3.00;99.90
10472;DHT22;5283;48.876;8.962;2023-02-28T00:30:17;-3.00;99.90
10472;DHT22;5283;48.876;8.962;2023-02-28T00:32:44;-3.10;99.90
10472;DHT22;5283;48.876;8.962;2023-02-28T00:35:11;-3.10;99.90
10472;DHT22;5283;48.876;8.962;2023-02-28T00:37:39;-3.20;99.90
10472;DHT22;5283;48.876;8.962;2023-02-28T00:40:07;-3.40;99.90
10472;DHT22;5283;48.876;8.962;2023-02-28T00:42:35;-3.50;99.90
10472;DHT22;5283;48.876;8.962;2023-02-28T00:45:02;-3.70;99.90
10472;DHT22;5283;48.876;8.962;2023-02-28T00:47:32;-3.70;99.90
10472;DHT22;5283;48.876;8.962;2023-02-28T00:49:59;-3.70;99.90
10472;DHT22;5283;48.876;8.962;2023-02-28T00:52:26;-3.70;99.90
10472;DHT22;5283;48.876;8.962;2023-02-28T00:54:53;-3.80;99.90
10472;DHT22;5283;48.876;8.962;2023-02-28T00:57:20;-3.80;99.90
10472;DHT22;5283;48.876;8.962;2023-02-28T00:59:46;-3.90;99.90
10472;DHT22;5283;48.876;8.962;2023-02-28T01:02:13;-4.00;99.90
10472;DHT22;5283;48.876;8.962;2023-02-28T01:04:40;-4.20;99.90
10472;DHT22;5283;48.876;8.962;2023-02-28T01:07:07;-4.20;99.90
10472;DHT22;5283;48.876;8.962;2023-02-28T01:09:34;-4.30;99.90
10472;DHT22;5283;48.876;8.962;2023-02-28T01:12:00;-4.40;99.90
10472;DHT22;5283;48.876;8.962;2023-02-28T01:14:27;-4.40;99.90
10472;DHT22;5283;48.876;8.962;2023-02-28T01:16:54;-4.40;99.90
10472;DHT22;5283;48.876;8.962;2023-02-28T01:19:20;-4.50;99.90
10472;DHT22;5283;48.876;8.962;2023-02-28T01:21:47;-4.60;99.90
10472;DHT22;5283;48.876;8.962;2023-02-28T01:24:14;-4.80;99.90
10472;DHT22;5283;48.876;8.962;2023-02-28T01:26:40;-4.80;99.90
10472;DHT22;5283;48.876;8.962;2023-02-28T01:29:07;-4.90;99.90
10472;DHT22;5283;48.876;8.962;2023-02-28T01:31:34;-4.80;99.90
10472;DHT22;5283;48.876;8.962;2023-02-28T01:34:02;-4.90;99.90
10472;DHT22;5283;48.876;8.962;2023-02-28T01:36:29;-5.00;99.90
10472;DHT22;5283;48.876;8.962;2023-02-28T01:38:56;-5.20;99.90
10472;DHT22;5283;48.876;8.962;2023-02-28T01:41:26;-5.30;99.90
10472;DHT22;5283;48.876;8.962;2023-02-28T01:43:58;-5.20;99.90
10472;DHT22;5283;48.876;8.962;2023-02-28T01:46:25;-5.30;99.90
10472;DHT22;5283;48.876;8.962;2023-02-28T01:51:31;-5.30;99.90
10472;DHT22;5283;48.876;8.962;2023-02-28T01:54:02;-5.40;99.90
10472;DHT22;5283;48.876;8.962;2023-02-28T01:56:33;-5.50;99.90
10472;DHT22;5283;48.876;8.962;2023-02-28T01:59:01;-5.60;99.90
10472;DHT22;5283;48.876;8.962;2023-02-28T02:01:27;-5.70;99.90
10472;DHT22;5283;48.876;8.962;2023-02-28T02:03:58;-5.70;99.90
10472;DHT22;5283;48.876;8.962;2023-02-28T02:06:29;-5.70;99.90
10472;DHT22;5283;48.876;8.962;2023-02-28T02:08:56;-5.80;99.90
10472;DHT22;5283;48.876;8.962;2023-02-28T02:11:24;-5.80;99.90
10472;DHT22;5283;48.876;8.962;2023-02-28T02:14:18;-5.80;99.90
10472;DHT22;5283;48.876;8.962;2023-02-28T02:17:01;-5.80;99.90
10472;DHT22;5283;48.876;8.962;2023-02-28T02:29:00;-5.80;99.90
10472;DHT22;5283;48.876;8.962;2023-02-28T02:34:43;-5.80;99.90
10472;DHT22;5283;48.876;8.962;2023-02-28T02:40:03;-5.70;99.90
10472;DHT22;5283;48.876;8.962;2023-02-28T02:43:19;-5.70;99.90
10472;DHT22;5283;48.876;8.962;2023-02-28T02:45:48;-5.80;99.90
10472;DHT22;5283;48.876;8.962;2023-02-28T02:48:19;-5.80;99.90
10472;DHT22;5283;48.876;8.962;2023-02-28T02:50:57;-5.80;99.90
10472;DHT22;5283;48.876;8.962;2023-02-28T02:53:36;-5.70;99.90
10472;DHT22;5283;48.876;8.962;2023-02-28T02:56:05;-5.60;99.90
10472;DHT22;5283;48.876;8.962;2023-02-28T02:58:37;-5.60;99.90
10472;DHT22;5283;48.876;8.962;2023-02-28T03:01:12;-5.60;99.90
10472;DHT22;5283;48.876;8.962;2023-02-28T03:03:41;-5.50;99.90
10472;DHT22;5283;48.876;8.962;2023-02-28T03:06:08;-5.40;99.90
10472;DHT22;5283;48.876;8.962;2023-02-28T03:08:37;-5.30;99.90
10472;DHT22;5283;48.876;8.962;2023-02-28T03:11:07;-5.20;99.90
10472;DHT22;5283;48.876;8.962;2023-02-28T03:13:48;-5.20;99.90
10472;DHT22;5283;48.876;8.962;2023-02-28T03:16:36;-4.80;99.90
10472;DHT22;5283;48.876;8.962;2023-02-28T03:27:29;-3.60;99.90
10472;DHT22;5283;48.876;8.962;2023-02-28T03:30:02;-3.40;99.90
10472;DHT22;5283;48.876;8.962;2023-02-28T03:32:35;-3.30;99.90
10472;DHT22;5283;48.876;8.962;2023-02-28T03:35:16;-3.10;99.90
10472;DHT22;5283;48.876;8.962;2023-02-28T03:37:52;-2.90;99.90
10472;DHT22;5283;48.876;8.962;2023-02-28T03:40:22;-2.80;99.90
10472;DHT22;5283;48.876;8.962;2023-02-28T03:42:56;-2.70;99.90
10472;DHT22;5283;48.876;8.962;2023-02-28T03:45:29;-2.60;99.90
10472;DHT22;5283;48.876;8.962;2023-02-28T03:48:27;-2.60;99.90
10472;DHT22;5283;48.876;8.962;2023-02-28T03:50:58;-2.50;99.90
10472;DHT22;5283;48.876;8.962;2023-02-28T03:53:37;-2.50;99.90
10472;DHT22;5283;48.876;8.962;2023-02-28T03:56:11;-2.40;99.90
10472;DHT22;5283;48.876;8.962;2023-02-28T03:58:55;-2.40;99.90
10472;DHT22;5283;48.876;8.962;2023-02-28T04:01:44;-2.40;99.90
10472;DHT22;5283;48.876;8.962;2023-02-28T04:04:12;-2.40;99.90
10472;DHT22;5283;48.876;8.962;2023-02-28T04:06:40;-2.30;99.90
10472;DHT22;5283;48.876;8.962;2023-02-28T04:09:08;-2.30;99.90
10472;DHT22;5283;48.876;8.962;2023-02-28T04:11:55;-2.30;99.90
10472;DHT22;5283;48.876;8.962;2023-02-28T04:14:23;-2.20;99.90
10472;DHT22;5283;48.876;8.962;2023-02-28T04:16:50;-2.20;99.90
10472;DHT22;5283;48.876;8.962;2023-02-28T04:19:17;-2.20;99.90
10472;DHT22;5283;48.876;8.962;2023-02-28T04:21:49;-2.20;99.90
10472;DHT22;5283;48.876;8.962;2023-02-28T04:24:19;-2.20;99.90
10472;DHT22;5283;48.876;8.962;2023-02-28T04:26:48;-2.20;99.90
10472;DHT22;5283;48.876;8.962;2023-02-28T04:29:30;-2.10;99.90
10472;DHT22;5283;48.876;8.962;2023-02-28T04:31:59;-2.10;99.90
10472;DHT22;5283;48.876;8.962;2023-02-28T04:34:27;-2.10;99.90
10472;DHT22;5283;48.876;8.962;2023-02-28T04:36:57;-2.10;99.90
10472;DHT22;5283;48.876;8.962;2023-02-28T04:39:40;-2.10;99.90
10472;DHT22;5283;48.876;8.962;2023-02-28T04:42:07;-2.20;99.90
10472;DHT22;5283;48.876;8.962;2023-02-28T04:44:34;-2.20;99.90
10472;DHT22;5283;48.876;8.962;2023-02-28T04:47:01;-2.20;99.90
10472;DHT22;5283;48.876;8.962;2023-02-28T04:49:28;-2.20;99.90
10472;DHT22;5283;48.876;8.962;2023-02-28T04:51:54;-2.20;99.90
10472;DHT22;5283;48.876;8.962;2023-02-28T04:54:22;-2.10;99.90
10472;DHT22;5283;48.876;8.962;2023-02-28T04:56:48;-2.10;99.90
10472;DHT22;5283;48.876;8.962;2023-02-28T04:59:16;-2.10;99.90
10472;DHT22;5283;48.876;8.962;2023-02-28T05:01:47;-2.10;99.90
10472;DHT22;5283;48.876;8.962;2023-02-28T05:04:14;-2.10;99.90
10472;DHT22;5283;48.876;8.962;2023-02-28T05:06:42;-2.10;99.90
10472;DHT22;5283;48.876;8.962;2023-02-28T05:09:09;-2.00;99.90
10472;DHT22;5283;48.876;8.962;2023-02-28T05:11:38;-2.00;99.90
10472;DHT22;5283;48.876;8.962;2023-02-28T05:14:11;-2.00;99.90
10472;DHT22;5283;48.876;8.962;2023-02-28T05:16:38;-1.90;99.90
10472;DHT22;5283;48.876;8.962;2023-02-28T05:19:05;-1.90;99.90
10472;DHT22;5283;48.876;8.962;2023-02-28T05:21:34;-1.90;99.90
10472;DHT22;5283;48.876;8.962;2023-02-28T05:24:03;-1.90;99.90
10472;DHT22;5283;48.876;8.962;2023-02-28T05:26:31;-2.00;99.90
10472;DHT22;5283;48.876;8.962;2023-02-28T05:28:57;-2.00;99.90
10472;DHT22;5283;48.876;8.962;2023-02-28T05:31:24;-1.90;99.90
10472;DHT22;5283;48.876;8.962;2023-02-28T05:33:51;-1.90;99.90
10472;DHT22;5283;48.876;8.962;2023-02-28T05:36:19;-1.90;99.90
10472;DHT22;5283;48.876;8.962;2023-02-28T05:38:47;-1.80;99.90
10472;DHT22;5283;48.876;8.962;2023-02-28T05:41:15;-1.80;99.90
10472;DHT22;5283;48.876;8.962;2023-02-28T05:43:41;-1.80;99.90
10472;DHT22;5283;48.876;8.962;2023-02-28T05:46:09;-1.70;99.90
10472;DHT22;5283;48.876;8.962;2023-02-28T05:48:38;-1.70;99.90
10472;DHT22;5283;48.876;8.962;2023-02-28T05:51:06;-1.60;99.90
10472;DHT22;5283;48.876;8.962;2023-02-28T05:53:34;-1.60;99.90
10472;DHT22;5283;48.876;8.962;2023-02-28T05:56:00;-1.50;99.90
10472;DHT22;5283;48.876;8.962;2023-02-28T05:58:28;-1.50;99.90
10472;DHT22;5283;48.876;8.962;2023-02-28T06:00:58;-1.50;99.90
10472;DHT22;5283;48.876;8.962;2023-02-28T06:03:26;-1.40;99.90
10472;DHT22;5283;48.876;8.962;2023-02-28T06:05:53;-1.40;99.90
10472;DHT22;5283;48.876;8.962;2023-02-28T06:08:20;-1.40;99.90
10472;DHT22;5283;48.876;8.962;2023-02-28T06:10:47;-1.40;99.90
10472;DHT22;5283;48.876;8.962;2023-02-28T06:13:14;-1.40;99.90
10472;DHT22;5283;48.876;8.962;2023-02-28T06:15:41;-1.40;99.90
10472;DHT22;5283;48.876;8.962;2023-02-28T06:18:08;-1.40;99.90
10472;DHT22;5283;48.876;8.962;2023-02-28T06:20:35;-1.30;99.90
10472;DHT22;5283;48.876;8.962;2023-02-28T06:23:02;-1.30;99.90
10472;DHT22;5283;48.876;8.962;2023-02-28T06:25:29;-1.30;99.90
10472;DHT22;5283;48.876;8.962;2023-02-28T06:27:56;-1.30;99.90
10472;DHT22;5283;48.876;8.962;2023-02-28T06:30:23;-1.30;99.90
10472;DHT22;5283;48.876;8.962;2023-02-28T06:32:53;-1.30;99.90
10472;DHT22;5283;48.876;8.962;2023-02-28T06:35:21;-1.30;99.90
10472;DHT22;5283;48.876;8.962;2023-02-28T06:37:47;-1.30;99.90
10472;DHT22;5283;48.876;8.962;2023-02-28T06:40:15;-1.30;99.90
10472;DHT22;5283;48.876;8.962;2023-02-28T06:42:42;-1.30;99.90
10472;DHT22;5283;48.876;8.962;2023-02-28T06:45:10;-1.30;99.90
10472;DHT22;5283;48.876;8.962;2023-02-28T06:47:38;-1.20;99.90
10472;DHT22;5283;48.876;8.962;2023-02-28T06:50:06;-1.20;99.90
10472;DHT22;5283;48.876;8.962;2023-02-28T06:52:33;-1.20;99.90
10472;DHT22;5283;48.876;8.962;2023-02-28T06:55:04;-1.20;99.90
10472;DHT22;5283;48.876;8.962;2023-02-28T06:57:32;-1.20;99.90
10472;DHT22;5283;48.876;8.962;2023-02-28T07:00:00;-1.20;99.90
10472;DHT22;5283;48.876;8.962;2023-02-28T07:02:28;-1.20;99.90
10472;DHT22;5283;48.876;8.962;2023-02-28T07:04:54;-1.20;99.90
10472;DHT22;5283;48.876;8.962;2023-02-28T07:07:21;-1.20;99.90
10472;DHT22;5283;48.876;8.962;2023-02-28T07:09:48;-1.20;99.90
10472;DHT22;5283;48.876;8.962;2023-02-28T07:12:15;-1.20;99.90
10472;DHT22;5283;48.876;8.962;2023-02-28T07:14:42;-1.10;99.90
10472;DHT22;5283;48.876;8.962;2023-02-28T07:17:09;-1.10;99.90
10472;DHT22;5283;48.876;8.962;2023-02-28T07:19:38;-1.10;99.90
10472;DHT22;5283;48.876;8.962;2023-02-28T07:22:06;-1.10;99.90
10472;DHT22;5283;48.876;8.962;2023-02-28T07:24:33;-1.00;99.90
10472;DHT22;5283;48.876;8.962;2023-02-28T07:27:00;-1.00;99.90
10472;DHT22;5283;48.876;8.962;2023-02-28T07:29:27;-1.00;99.90
10472;DHT22;5283;48.876;8.962;2023-02-28T07:31:54;-1.00;99.90
10472;DHT22;5283;48.876;8.962;2023-02-28T07:34:21;-0.90;99.90
10472;DHT22;5283;48.876;8.962;2023-02-28T07:36:48;-0.90;99.90
10472;DHT22;5283;48.876;8.962;2023-02-28T07:39:15;-0.90;99.90
10472;DHT22;5283;48.876;8.962;2023-02-28T07:41:42;-0.80;99.90
10472;DHT22;5283;48.876;8.962;2023-02-28T07:44:11;-0.80;99.90
10472;DHT22;5283;48.876;8.962;2023-02-28T07:46:38;-0.70;99.90
10472;DHT22;5283;48.876;8.962;2023-02-28T07:49:05;-0.70;99.90
10472;DHT22;5283;48.876;8.962;2023-02-28T07:51:32;-0.60;99.90
10472;DHT22;5283;48.876;8.962;2023-02-28T07:53:59;-0.70;99.90
10472;DHT22;5283;48.876;8.962;2023-02-28T07:56:26;-0.70;99.90
10472;DHT22;5283;48.876;8.962;2023-02-28T07:58:53;-0.70;99.90
10472;DHT22;5283;48.876;8.962;2023-02-28T08:01:20;-0.70;99.90
10472;DHT22;5283;48.876;8.962;2023-02-28T08:03:47;-0.70;99.90
10472;DHT22;5283;48.876;8.962;2023-02-28T08:06:20;-0.70;99.90
10472;DHT22;5283;48.876;8.962;2023-02-28T08:08:47;-0.70;99.90
10472;DHT22;5283;48.876;8.962;2023-02-28T08:11:15;-0.70;99.90
10472;DHT22;5283;48.876;8.962;2023-02-28T08:13:43;-0.70;99.90
10472;DHT22;5283;48.876;8.962;2023-02-28T08:16:11;-0.70;99.90
10472;DHT22;5283;48.876;8.962;2023-02-28T08:18:40;-0.70;99.90
10472;DHT22;5283;48.876;8.962;2023-02-28T08:21:09;-0.70;99.90
10472;DHT22;5283;48.876;8.962;2023-02-28T08:23:36;-0.70;99.90
10472;DHT22;5283;48.876;8.962;2023-02-28T08:26:03;-0.60;99.90
10472;DHT22;5283;48.876;8.962;2023-02-28T08:28:30;-0.60;99.90
10472;DHT22;5283;48.876;8.962;2023-02-28T08:30:57;-0.60;99.90
10472;DHT22;5283;48.876;8.962;2023-02-28T08:33:24;-0.60;99.90
10472;DHT22;5283;48.876;8.962;2023-02-28T08:35:55;-0.60;99.90
10472;DHT22;5283;48.876;8.962;2023-02-28T08:38:23;-0.50;99.90
10472;DHT22;5283;48.876;8.962;2023-02-28T08:40:56;-0.50;99.90
10472;DHT22;5283;48.876;8.962;2023-02-28T08:43:23;-0.50;99.90
10472;DHT22;5283;48.876;8.962;2023-02-28T08:45:54;-0.50;99.90
10472;DHT22;5283;48.876;8.962;2023-02-28T08:48:20;-0.50;99.90
10472;DHT22;5283;48.876;8.962;2023-02-28T08:50:57;-0.40;99.90
10472;DHT22;5283;48.876;8.962;2023-02-28T08:53:32;-0.40;99.90
10472;DHT22;5283;48.876;8.962;2023-02-28T08:56:07;-0.40;99.90
10472;DHT22;5283;48.876;8.962;2023-02-28T08:58:35;-0.40;99.90
10472;DHT22;5283;48.876;8.962;2023-02-28T09:01:12;-0.40;99.90
10472;DHT22;5283;48.876;8.962;2023-02-28T09:03:40;-0.40;99.90
10472;DHT22;5283;48.876;8.962;2023-02-28T09:06:09;-0.40;99.90
10472;DHT22;5283;48.876;8.962;2023-02-28T09:08:36;-0.20;99.90
10472;DHT22;5283;48.876;8.962;2023-02-28T09:11:03;-0.10;99.90
10472;DHT22;5283;48.876;8.962;2023-02-28T09:13:30;0.00;99.90
10472;DHT22;5283;48.876;8.962;2023-02-28T09:16:02;0.00;99.90
10472;DHT22;5283;48.876;8.962;2023-02-28T09:18:29;0.10;99.90
10472;DHT22;5283;48.876;8.962;2023-02-28T09:20:56;0.10;99.90
10472;DHT22;5283;48.876;8.962;2023-02-28T09:23:24;0.10;99.90
10472;DHT22;5283;48.876;8.962;2023-02-28T09:25:53;0.20;99.90
10472;DHT22;5283;48.876;8.962;2023-02-28T09:28:21;0.20;99.90
10472;DHT22;5283;48.876;8.962;2023-02-28T09:30:50;0.30;99.90
10472;DHT22;5283;48.876;8.962;2023-02-28T09:33:18;0.30;99.90
10472;DHT22;5283;48.876;8.962;2023-02-28T09:35:48;0.40;99.90
10472;DHT22;5283;48.876;8.962;2023-02-28T09:38:16;0.40;99.90
10472;DHT22;5283;48.876;8.962;2023-02-28T09:43:14;0.50;99.90
10472;DHT22;5283;48.876;8.962;2023-02-28T09:45:45;0.50;99.90
10472;DHT22;5283;48.876;8.962;2023-02-28T09:48:25;0.60;99.90
10472;DHT22;5283;48.876;8.962;2023-02-28T09:51:08;0.70;99.90
10472;DHT22;5283;48.876;8.962;2023-02-28T09:53:37;0.70;99.90
10472;DHT22;5283;48.876;8.962;2023-02-28T09:56:12;0.60;99.90
10472;DHT22;5283;48.876;8.962;2023-02-28T09:58:59;0.70;99.90
10472;DHT22;5283;48.876;8.962;2023-02-28T10:06:50;1.00;99.90
10472;DHT22;5283;48.876;8.962;2023-02-28T10:09:23;1.00;99.90
10472;DHT22;5283;48.876;8.962;2023-02-28T10:11:52;1.20;99.90
10472;DHT22;5283;48.876;8.962;2023-02-28T10:14:26;1.30;99.90
10472;DHT22;5283;48.876;8.962;2023-02-28T10:17:14;1.30;99.90
10472;DHT22;5283;48.876;8.962;2023-02-28T10:19:58;1.40;99.90
10472;DHT22;5283;48.876;8.962;2023-02-28T10:22:32;1.40;99.90
10472;DHT22;5283;48.876;8.962;2023-02-28T10:25:21;1.30;99.90
10472;DHT22;5283;48.876;8.962;2023-02-28T10:27:49;1.40;99.90
10472;DHT22;5283;48.876;8.962;2023-02-28T10:30:16;1.40;99.90
10472;DHT22;5283;48.876;8.962;2023-02-28T10:32:49;1.20;99.90
10472;DHT22;5283;48.876;8.962;2023-02-28T10:35:23;1.40;99.90
10472;DHT22;5283;48.876;8.962;2023-02-28T10:37:59;1.50;99.90
10472;DHT22;5283;48.876;8.962;2023-02-28T10:40:34;1.60;99.90
10472;DHT22;5283;48.876;8.962;2023-02-28T10:43:17;1.70;99.90
10472;DHT22;5283;48.876;8.962;2023-02-28T10:48:59;1.40;99.90
10472;DHT22;5283;48.876;8.962;2023-02-28T10:51:35;1.50;99.90
10472;DHT22;5283;48.876;8.962;2023-02-28T10:54:03;1.50;99.90
10472;DHT22;5283;48.876;8.962;2023-02-28T10:56:30;1.60;99.90
10472;DHT22;5283;48.876;8.962;2023-02-28T10:59:08;1.60;99.90
10472;DHT22;5283;48.876;8.962;2023-02-28T11:01:48;1.70;99.90
10472;DHT22;5283;48.876;8.962;2023-02-28T11:07:16;1.90;99.90
10472;DHT22;5283;48.876;8.962;2023-02-28T11:09:48;2.00;99.90
10472;DHT22;5283;48.876;8.962;2023-02-28T11:12:42;2.10;99.90
10472;DHT22;5283;48.876;8.962;2023-02-28T11:15:22;2.20;99.90
10472;DHT22;5283;48.876;8.962;2023-02-28T11:17:58;2.30;99.90
10472;DHT22;5283;48.876;8.962;2023-02-28T11:20:31;2.40;99.90
10472;DHT22;5283;48.876;8.962;2023-02-28T11:23:01;2.60;99.90
10472;DHT22;5283;48.876;8.962;2023-02-28T11:25:37;2.70;99.90
10472;DHT22;5283;48.876;8.962;2023-02-28T11:28:06;2.80;99.90
10472;DHT22;5283;48.876;8.962;2023-02-28T11:31:01;2.90;99.90
10472;DHT22;5283;48.876;8.962;2023-02-28T11:36:24;3.20;99.90
10472;DHT22;5283;48.876;8.962;2023-02-28T11:38:53;3.40;99.90
10472;DHT22;5283;48.876;8.962;2023-02-28T11:46:56;3.20;99.90
10472;DHT22;5283;48.876;8.962;2023-02-28T11:49:46;3.40;99.90
10472;DHT22;5283;48.876;8.962;2023-02-28T11:57:27;3.60;99.90
10472;DHT22;5283;48.876;8.962;2023-02-28T12:03:21;3.60;99.90
10472;DHT22;5283;48.876;8.962;2023-02-28T12:06:20;3.70;99.90
10472;DHT22;5283;48.876;8.962;2023-02-28T12:11:52;4.00;99.90
10472;DHT22;5283;48.876;8.962;2023-02-28T12:20:40;4.40;99.90
10472;DHT22;5283;48.876;8.962;2023-02-28T12:26:14;4.10;99.90
10472;DHT22;5283;48.876;8.962;2023-02-28T12:28:49;4.10;99.90
10472;DHT22;5283;48.876;8.962;2023-02-28T12:31:20;4.00;99.90
10472;DHT22;5283;48.876;8.962;2023-02-28T12:34:10;4.00;99.90
10472;DHT22;5283;48.876;8.962;2023-02-28T12:36:39;4.20;99.90
10472;DHT22;5283;48.876;8.962;2023-02-28T12:39:17;4.20;99.90
10472;DHT22;5283;48.876;8.962;2023-02-28T12:44:34;3.80;99.90
10472;DHT22;5283;48.876;8.962;2023-02-28T12:47:05;3.70;99.90
10472;DHT22;5283;48.876;8.962;2023-02-28T12:49:45;3.60;99.90
10472;DHT22;5283;48.876;8.962;2023-02-28T12:52:16;3.50;99.90
10472;DHT22;5283;48.876;8.962;2023-02-28T12:55:08;3.60;99.90
10472;DHT22;5283;48.876;8.962;2023-02-28T12:57:43;3.70;99.90
10472;DHT22;5283;48.876;8.962;2023-02-28T13:00:15;3.80;99.90
10472;DHT22;5283;48.876;8.962;2023-02-28T13:02:56;3.90;99.90
10472;DHT22;5283;48.876;8.962;2023-02-28T13:05:39;4.10;99.90
10472;DHT22;5283;48.876;8.962;2023-02-28T13:11:07;4.20;99.90
10472;DHT22;5283;48.876;8.962;2023-02-28T13:13:46;4.20;99.90
10472;DHT22;5283;48.876;8.962;2023-02-28T13:16:13;4.30;99.90
10472;DHT22;5283;48.876;8.962;2023-02-28T13:18:43;4.30;99.90
10472;DHT22;5283;48.876;8.962;2023-02-28T13:21:29;4.40;99.90
10472;DHT22;5283;48.876;8.962;2023-02-28T13:24:03;4.30;99.90
10472;DHT22;5283;48.876;8.962;2023-02-28T13:29:02;4.40;99.90
10472;DHT22;5283;48.876;8.962;2023-02-28T13:31:31;4.50;99.90
10472;DHT22;5283;48.876;8.962;2023-02-28T13:34:14;4.50;99.90
10472;DHT22;5283;48.876;8.962;2023-02-28T13:36:41;4.40;99.90
10472;DHT22;5283;48.876;8.962;2023-02-28T13:45:27;4.30;99.90
10472;DHT22;5283;48.876;8.962;2023-02-28T13:50:44;4.50;99.90
10472;DHT22;5283;48.876;8.962;2023-02-28T13:58:43;4.80;99.90
10472;DHT22;5283;48.876;8.962;2023-02-28T14:07:19;5.20;99.90
10472;DHT22;5283;48.876;8.962;2023-02-28T14:09:59;5.40;99.90
10472;DHT22;5283;48.876;8.962;2023-02-28T14:17:55;5.70;99.90
10472;DHT22;5283;48.876;8.962;2023-02-28T14:20:27;5.80;99.90
10472;DHT22;5283;48.876;8.962;2023-02-28T14:23:39;5.70;99.90
10472;DHT22;5283;48.876;8.962;2023-02-28T14:32:01;6.00;99.90
10472;DHT22;5283;48.876;8.962;2023-02-28T14:34:54;6.10;99.90
10472;DHT22;5283;48.876;8.962;2023-02-28T14:37:30;5.90;99.90
10472;DHT22;5283;48.876;8.962;2023-02-28T14:39:59;5.70;99.90
10472;DHT22;5283;48.876;8.962;2023-02-28T14:42:29;5.50;99.90
10472;DHT22;5283;48.876;8.962;2023-02-28T14:44:57;5.80;99.90
10472;DHT22;5283;48.876;8.962;2023-02-28T14:47:31;5.90;99.90
10472;DHT22;5283;48.876;8.962;2023-02-28T14:49:59;5.90;99.90
10472;DHT22;5283;48.876;8.962;2023-02-28T14:52:29;5.80;99.90
10472;DHT22;5283;48.876;8.962;2023-02-28T14:55:05;5.70;99.90
10472;DHT22;5283;48.876;8.962;2023-02-28T14:57:39;5.70;99.90
10472;DHT22;5283;48.876;8.962;2023-02-28T15:00:11;5.60;99.90
10472;DHT22;5283;48.876;8.962;2023-02-28T15:02:40;5.50;99.90
10472;DHT22;5283;48.876;8.962;2023-02-28T15:07:47;5.80;99.90
10472;DHT22;5283;48.876;8.962;2023-02-28T15:10:23;5.70;99.90
10472;DHT22;5283;48.876;8.962;2023-02-28T15:13:07;5.70;99.90
10472;DHT22;5283;48.876;8.962;2023-02-28T15:15:53;5.60;99.90
10472;DHT22;5283;48.876;8.962;2023-02-28T15:18:33;5.40;99.90
10472;DHT22;5283;48.876;8.962;2023-02-28T15:24:00;5.10;99.90
10472;DHT22;5283;48.876;8.962;2023-02-28T15:26:41;5.00;99.90
10472;DHT22;5283;48.876;8.962;2023-02-28T15:29:14;5.10;99.90
10472;DHT22;5283;48.876;8.962;2023-02-28T15:31:50;5.20;99.90
10472;DHT22;5283;48.876;8.962;2023-02-28T15:37:33;5.30;99.90
10472;DHT22;5283;48.876;8.962;2023-02-28T15:42:41;5.40;99.90
10472;DHT22;5283;48.876;8.962;2023-02-28T15:45:33;5.30;99.90
10472;DHT22;5283;48.876;8.962;2023-02-28T15:48:09;5.20;99.90
10472;DHT22;5283;48.876;8.962;2023-02-28T15:50:40;5.20;99.90
10472;DHT22;5283;48.876;8.962;2023-02-28T15:53:13;5.10;99.90
10472;DHT22;5283;48.876;8.962;2023-02-28T15:55:40;5.00;99.90
10472;DHT22;5283;48.876;8.962;2023-02-28T15:58:10;5.00;99.90
10472;DHT22;5283;48.876;8.962;2023-02-28T16:00:39;5.00;99.90
10472;DHT22;5283;48.876;8.962;2023-02-28T16:03:26;5.00;99.90
10472;DHT22;5283;48.876;8.962;2023-02-28T16:08:49;5.00;99.90
10472;DHT22;5283;48.876;8.962;2023-02-28T16:11:19;4.90;99.90
10472;DHT22;5283;48.876;8.962;2023-02-28T16:13:47;4.70;99.90
10472;DHT22;5283;48.876;8.962;2023-02-28T16:16:23;4.60;99.90
10472;DHT22;5283;48.876;8.962;2023-02-28T16:18:50;4.50;99.90
10472;DHT22;5283;48.876;8.962;2023-02-28T16:21:17;4.30;99.90
10472;DHT22;5283;48.876;8.962;2023-02-28T16:23:44;4.20;99.90
10472;DHT22;5283;48.876;8.962;2023-02-28T16:26:23;4.10;99.90
10472;DHT22;5283;48.876;8.962;2023-02-28T16:28:51;4.10;99.90
10472;DHT22;5283;48.876;8.962;2023-02-28T16:31:18;4.00;99.90
10472;DHT22;5283;48.876;8.962;2023-02-28T16:33:45;3.90;99.90
10472;DHT22;5283;48.876;8.962;2023-02-28T16:36:14;3.80;99.90
10472;DHT22;5283;48.876;8.962;2023-02-28T16:38:41;3.80;99.90
10472;DHT22;5283;48.876;8.962;2023-02-28T16:41:12;3.80;99.90
10472;DHT22;5283;48.876;8.962;2023-02-28T16:43:45;3.70;99.90
10472;DHT22;5283;48.876;8.962;2023-02-28T16:46:12;3.70;99.90
10472;DHT22;5283;48.876;8.962;2023-02-28T16:48:39;3.60;99.90
10472;DHT22;5283;48.876;8.962;2023-02-28T16:51:16;3.60;99.90
10472;DHT22;5283;48.876;8.962;2023-02-28T16:53:44;3.60;99.90
10472;DHT22;5283;48.876;8.962;2023-02-28T16:56:17;3.50;99.90
10472;DHT22;5283;48.876;8.962;2023-02-28T16:58:44;3.40;99.90
10472;DHT22;5283;48.876;8.962;2023-02-28T17:01:11;3.40;99.90
10472;DHT22;5283;48.876;8.962;2023-02-28T17:03:38;3.30;99.90
10472;DHT22;5283;48.876;8.962;2023-02-28T17:06:17;3.10;99.90
10472;DHT22;5283;48.876;8.962;2023-02-28T17:08:44;3.00;99.90
10472;DHT22;5283;48.876;8.962;2023-02-28T17:11:11;2.90;99.90
10472;DHT22;5283;48.876;8.962;2023-02-28T17:13:37;2.70;99.90
10472;DHT22;5283;48.876;8.962;2023-02-28T17:16:05;2.60;99.90
10472;DHT22;5283;48.876;8.962;2023-02-28T17:18:31;2.60;99.90
10472;DHT22;5283;48.876;8.962;2023-02-28T17:21:01;2.50;99.90
10472;DHT22;5283;48.876;8.962;2023-02-28T17:23:27;2.40;99.90
10472;DHT22;5283;48.876;8.962;2023-02-28T17:25:54;2.30;99.90
10472;DHT22;5283;48.876;8.962;2023-02-28T17:28:23;2.20;99.90
10472;DHT22;5283;48.876;8.962;2023-02-28T17:30:50;2.10;99.90
10472;DHT22;5283;48.876;8.962;2023-02-28T17:33:17;2.00;99.90
10472;DHT22;5283;48.876;8.962;2023-02-28T17:35:44;2.00;99.90
10472;DHT22;5283;48.876;8.962;2023-02-28T17:38:18;1.90;99.90
10472;DHT22;5283;48.876;8.962;2023-02-28T17:40:45;1.70;99.90
10472;DHT22;5283;48.876;8.962;2023-02-28T17:43:12;1.60;99.90
10472;DHT22;5283;48.876;8.962;2023-02-28T17:45:39;1.50;99.90
10472;DHT22;5283;48.876;8.962;2023-02-28T17:48:06;1.50;99.90
10472;DHT22;5283;48.876;8.962;2023-02-28T17:50:32;1.40;99.90
10472;DHT22;5283;48.876;8.962;2023-02-28T17:52:59;1.30;99.90
10472;DHT22;5283;48.876;8.962;2023-02-28T17:55:26;1.00;99.90
10472;DHT22;5283;48.876;8.962;2023-02-28T17:57:53;0.70;99.90
10472;DHT22;5283;48.876;8.962;2023-02-28T18:00:20;0.30;99.90
10472;DHT22;5283;48.876;8.962;2023-02-28T18:02:50;0.00;99.90
10472;DHT22;5283;48.876;8.962;2023-02-28T18:05:17;-0.30;99.90
10472;DHT22;5283;48.876;8.962;2023-02-28T18:07:44;-0.50;99.90
10472;DHT22;5283;48.876;8.962;2023-02-28T18:10:19;-0.60;99.90
10472;DHT22;5283;48.876;8.962;2023-02-28T18:12:51;-0.60;99.90
10472;DHT22;5283;48.876;8.962;2023-02-28T18:15:19;-0.70;99.90
10472;DHT22;5283;48.876;8.962;2023-02-28T18:17:48;-0.80;99.90
10472;DHT22;5283;48.876;8.962;2023-02-28T18:20:16;-0.90;99.90